Time;durP1;ratioP1;P1;durP2;ratioP2;P2;SDS_P1;SDS_P2;PMS_P1;PMS_P2;Temp;Humidity;BMP_temperature;BMP_pressure;BME280_temperature;BME280_humidity;BME280_pressure;Samples;Min_cycle;Max_cycle;Signal;HPM_P1;HPM_P2
2023/09/23 00:00:02;;;;;;;2.53;2.20;;;;;;;16.41;62.00;100678.41;5059094;28;20049;-66
2023/09/23 00:02:30;;;;;;;4.50;2.10;;;;;;;16.42;62.11;100684.66;5059688;28;20609;-65
2023/09/23 00:04:58;;;;;;;2.60;2.10;;;;;;;16.41;62.08;100677.59;5057180;27;20059;-65
2023/09/23 00:07:28;;;;;;;3.03;1.98;;;;;;;16.40;62.17;100678.69;5058909;28;20093;-66
2023/09/23 00:09:56;;;;;;;2.90;2.10;;;;;;;16.37;62.09;100680.03;5060015;28;20068;-66
2023/09/23 00:12:24;;;;;;;4.05;2.05;;;;;;;16.38;62.04;100675.41;5059282;27;20049;-66
2023/09/23 00:14:54;;;;;;;4.38;2.63;;;;;;;16.37;62.12;100679.22;5060581;28;20049;-66
2023/09/23 00:17:22;;;;;;;3.15;2.03;;;;;;;16.36;62.09;100680.28;5062543;27;20117;-65
2023/09/23 00:19:51;;;;;;;3.13;2.53;;;;;;;16.34;62.06;100688.69;5058245;27;20071;-66
2023/09/23 00:22:18;;;;;;;5.70;2.47;;;;;;;16.33;62.19;100689.78;5060222;28;20049;-65
2023/09/23 00:24:48;;;;;;;4.90;2.15;;;;;;;16.32;62.08;100695.47;5060618;28;20065;-66
2023/09/23 00:27:17;;;;;;;6.55;2.20;;;;;;;16.32;62.20;100695.47;5060411;27;20041;-66
2023/09/23 00:29:45;;;;;;;3.88;2.20;;;;;;;16.30;62.08;100692.19;5059909;28;20106;-65
2023/09/23 00:32:14;;;;;;;4.68;2.40;;;;;;;16.30;62.14;100700.34;5057964;27;20069;-65
2023/09/23 00:34:42;;;;;;;2.85;2.30;;;;;;;16.28;62.21;100697.88;5063105;27;20338;-66
2023/09/23 00:37:10;;;;;;;3.45;2.35;;;;;;;16.28;62.06;100695.16;5061698;27;20055;-66
2023/09/23 00:39:42;;;;;;;7.85;2.92;;;;;;;16.28;62.18;100706.03;5056344;28;20041;-67
2023/09/23 00:42:12;;;;;;;2.25;1.73;;;;;;;16.26;62.17;100702.75;5055023;27;20406;-65
2023/09/23 00:44:40;;;;;;;2.88;2.15;;;;;;;16.24;62.00;100708.44;5060038;28;20094;-66
2023/09/23 00:47:09;;;;;;;3.78;2.47;;;;;;;16.24;61.92;100711.16;5060509;28;20045;-66
2023/09/23 00:49:39;;;;;;;7.18;2.50;;;;;;;16.25;61.90;100706.53;5059328;27;20049;-67
2023/09/23 00:52:07;;;;;;;8.82;2.67;;;;;;;16.24;62.08;100704.91;5060478;28;20486;-66
2023/09/23 00:54:40;;;;;;;3.65;2.38;;;;;;;16.18;61.99;100692.41;5060152;28;20152;-66
2023/09/23 00:57:08;;;;;;;4.75;2.30;;;;;;;16.22;62.15;100701.66;5058573;27;20136;-66
2023/09/23 00:59:37;;;;;;;4.88;2.35;;;;;;;16.21;62.09;100708.16;5056826;28;20128;-66
2023/09/23 01:02:06;;;;;;;3.75;2.28;;;;;;;16.21;62.27;100710.84;5059073;28;20045;-65
2023/09/23 01:04:34;;;;;;;8.32;3.10;;;;;;;16.21;62.07;100710.84;5059634;27;20077;-64
2023/09/23 01:07:02;;;;;;;4.07;2.25;;;;;;;16.19;61.97;100710.31;5058861;28;20072;-65
2023/09/23 01:09:33;;;;;;;5.03;2.60;;;;;;;16.20;61.96;100722.78;5059753;28;20045;-65
2023/09/23 01:12:00;;;;;;;3.58;2.30;;;;;;;16.19;62.13;100719.25;5058125;27;20074;-65
2023/09/23 01:14:28;;;;;;;5.32;2.60;;;;;;;16.18;62.06;100723.03;5058539;28;20106;-65
2023/09/23 01:16:58;;;;;;;6.07;3.42;;;;;;;16.15;62.07;100720.03;5060735;28;20189;-65
2023/09/23 01:19:26;;;;;;;4.25;2.22;;;;;;;16.14;62.06;100732.78;5054801;27;20041;-65
2023/09/23 01:21:55;;;;;;;4.55;2.30;;;;;;;16.15;62.03;100723.56;5058931;28;20049;-65
2023/09/23 01:24:25;;;;;;;5.90;2.15;;;;;;;16.15;62.01;100739.03;5062281;27;20045;-65
2023/09/23 01:26:54;;;;;;;4.22;2.38;;;;;;;16.13;62.13;100739.28;5059904;28;20049;-65
2023/09/23 01:29:23;;;;;;;3.78;2.70;;;;;;;16.13;62.13;100744.69;5056898;27;20042;-65
2023/09/23 01:32:10;;;;;;;4.55;2.72;;;;;;;16.10;62.03;100747.94;5058775;28;20045;-65
2023/09/23 01:34:38;;;;;;;4.47;2.60;;;;;;;16.11;61.92;100746.84;5054917;28;20406;-66
2023/09/23 01:37:06;;;;;;;4.85;2.35;;;;;;;16.11;61.97;100748.75;5059921;27;20049;-65
2023/09/23 01:39:35;;;;;;;3.63;2.33;;;;;;;16.12;62.05;100755.81;5053945;28;20041;-65
2023/09/23 01:42:04;;;;;;;3.83;2.40;;;;;;;16.09;61.95;100750.91;5060017;28;20093;-65
2023/09/23 01:44:32;;;;;;;3.85;2.35;;;;;;;16.08;61.95;100752.81;5055011;28;20075;-66
2023/09/23 01:47:00;;;;;;;4.03;2.33;;;;;;;16.05;62.05;100753.31;5057986;28;20045;-65
2023/09/23 01:49:28;;;;;;;11.15;2.50;;;;;;;16.05;62.05;100752.50;5079719;27;20040;-65
2023/09/23 01:51:56;;;;;;;3.70;2.55;;;;;;;16.05;61.73;100747.91;5066791;27;20072;-65
2023/09/23 01:54:23;;;;;;;3.78;2.08;;;;;;;16.05;61.97;100753.31;5059673;28;20053;-65
2023/09/23 01:56:52;;;;;;;7.03;2.15;;;;;;;16.05;62.05;100757.94;5062116;27;20534;-65
2023/09/23 01:59:20;;;;;;;8.45;2.15;;;;;;;16.04;61.95;100759.00;5057887;28;20073;-64
2023/09/23 02:01:48;;;;;;;4.20;2.35;;;;;;;16.02;61.99;100764.69;5054076;27;20069;-66
2023/09/23 02:04:17;;;;;;;3.92;2.20;;;;;;;15.83;61.89;100729.03;5057942;27;20056;-66
2023/09/23 02:06:46;;;;;;;3.83;2.33;;;;;;;15.99;61.99;100757.06;5057455;28;20140;-66
2023/09/23 02:09:14;;;;;;;6.03;2.28;;;;;;;15.99;62.12;100762.50;5065859;27;20039;-66
2023/09/23 02:11:41;;;;;;;6.38;2.22;;;;;;;15.97;62.08;100769.25;5058566;28;20053;-66
2023/09/23 02:14:11;;;;;;;3.42;2.08;;;;;;;15.98;62.13;100765.47;5060303;27;20045;-66
2023/09/23 02:16:39;;;;;;;5.90;2.00;;;;;;;15.97;61.91;100777.38;5064836;27;20056;-66
2023/09/23 02:19:07;;;;;;;5.38;2.08;;;;;;;15.94;61.92;100774.13;5086117;27;20077;-66
2023/09/23 02:21:35;;;;;;;5.43;2.08;;;;;;;15.95;61.97;100778.47;5057753;28;20227;-66
2023/09/23 02:24:03;;;;;;;3.33;1.70;;;;;;;15.93;62.04;100783.31;5058870;28;20105;-66
2023/09/23 02:26:31;;;;;;;2.85;1.80;;;;;;;15.92;62.08;100783.59;5059615;28;20085;-66
2023/09/23 02:28:58;;;;;;;4.35;2.17;;;;;;;15.87;62.10;100776.22;5059005;27;20585;-65
2023/09/23 02:31:28;;;;;;;3.88;2.13;;;;;;;15.91;62.06;100779.22;5060446;27;20140;-66
2023/09/23 02:33:57;;;;;;;4.05;2.20;;;;;;;15.89;62.01;100782.19;5056473;28;20060;-66
2023/09/23 02:36:25;;;;;;;5.03;1.98;;;;;;;15.88;61.96;100787.88;5056636;28;20108;-66
2023/09/23 02:38:53;;;;;;;6.20;2.15;;;;;;;15.86;62.12;100798.16;5056253;27;20494;-65
2023/09/23 02:41:22;;;;;;;3.47;1.73;;;;;;;15.86;62.13;100795.44;5058522;28;20043;-66
2023/09/23 02:43:52;;;;;;;6.38;1.90;;;;;;;15.86;62.06;100798.97;5059867;27;20057;-66
2023/09/23 02:46:20;;;;;;;3.47;1.70;;;;;;;15.83;62.07;100807.63;5063783;28;20045;-66
2023/09/23 02:48:49;;;;;;;3.88;1.80;;;;;;;15.84;62.00;100805.72;5057086;27;20098;-65
2023/09/23 02:51:17;;;;;;;4.60;1.65;;;;;;;15.85;62.01;100818.22;5057262;28;20096;-66
2023/09/23 02:53:45;;;;;;;3.53;1.85;;;;;;;15.84;61.94;100811.16;5058743;28;20080;-66
2023/09/23 02:56:15;;;;;;;3.22;1.75;;;;;;;15.72;62.00;100788.81;5060886;27;20041;-66
2023/09/23 02:58:43;;;;;;;4.45;1.42;;;;;;;15.85;61.93;100812.78;5057654;28;20041;-66
2023/09/23 03:01:14;;;;;;;2.90;1.45;;;;;;;15.83;62.04;100817.66;5056006;28;20076;-66
2023/09/23 03:03:43;;;;;;;3.17;1.52;;;;;;;15.82;62.16;100818.72;5055506;27;20609;-65
2023/09/23 03:06:15;;;;;;;3.53;1.67;;;;;;;15.79;61.98;100813.81;5056564;28;20076;-66
2023/09/23 03:08:47;;;;;;;3.25;1.60;;;;;;;15.82;61.92;100824.16;5056677;28;20049;-66
2023/09/23 03:11:18;;;;;;;7.07;1.55;;;;;;;15.80;62.11;100829.00;5060654;27;20072;-66
2023/09/23 03:13:46;;;;;;;4.20;1.52;;;;;;;15.78;62.15;100820.31;5062314;28;20509;-65
2023/09/23 03:16:18;;;;;;;3.33;1.25;;;;;;;15.79;61.90;100821.94;5062391;28;20062;-66
2023/09/23 03:18:55;;;;;;;3.45;1.20;;;;;;;15.76;62.05;100817.88;5062477;28;20057;-65
2023/09/23 03:21:24;;;;;;;4.97;1.88;;;;;;;15.75;62.12;100820.81;5061589;28;20048;-66
2023/09/23 03:23:53;;;;;;;2.90;1.48;;;;;;;15.76;61.92;100825.16;5061883;28;20078;-66
2023/09/23 03:26:21;;;;;;;2.45;1.40;;;;;;;15.75;62.04;100824.34;5064666;27;20041;-66
2023/09/23 03:28:49;;;;;;;2.30;1.40;;;;;;;15.74;61.96;100830.84;5069374;27;20045;-66
2023/09/23 03:31:17;;;;;;;3.95;1.67;;;;;;;15.73;62.07;100831.91;5057805;28;20037;-66
2023/09/23 03:33:45;;;;;;;3.53;1.20;;;;;;;15.74;62.08;100832.75;5056476;27;20049;-65
2023/09/23 03:36:16;;;;;;;4.30;1.45;;;;;;;15.72;61.89;100833.00;5056989;28;20053;-66
2023/09/23 03:38:47;;;;;;;1.75;1.00;;;;;;;15.73;62.01;100847.34;5067278;27;20072;-64
2023/09/23 03:41:15;;;;;;;5.50;1.73;;;;;;;15.73;61.88;100839.22;5059746;27;20069;-66
2023/09/23 03:43:43;;;;;;;2.70;1.50;;;;;;;15.70;61.47;100835.16;5064389;27;20406;-66
2023/09/23 03:46:14;;;;;;;4.05;1.35;;;;;;;15.64;62.06;100830.75;5061665;28;20049;-66
2023/09/23 03:48:43;;;;;;;2.47;1.25;;;;;;;15.68;61.94;100837.28;4722289;27;10000459;-65
2023/09/23 03:51:11;;;;;;;3.22;1.20;;;;;;;15.66;62.08;100839.44;5085905;27;20053;-65
2023/09/23 03:53:39;;;;;;;4.25;1.77;;;;;;;15.66;62.09;100846.75;5058645;27;20061;-66
2023/09/23 03:56:08;;;;;;;5.95;1.95;;;;;;;15.64;62.06;100852.41;5060638;27;20055;-65
2023/09/23 03:58:38;;;;;;;1.83;1.08;;;;;;;15.63;62.00;100848.88;5057508;28;20056;-65
2023/09/23 04:01:13;;;;;;;5.45;1.52;;;;;;;15.62;62.21;100852.69;5058179;27;20077;-65
2023/09/23 04:03:42;;;;;;;2.30;1.20;;;;;;;15.61;62.16;100852.94;5055756;28;20053;-65
2023/09/23 04:06:11;;;;;;;4.78;1.50;;;;;;;15.60;62.11;100854.81;5059445;27;20049;-65
2023/09/23 04:08:39;;;;;;;3.72;1.55;;;;;;;15.59;62.09;100850.50;5056334;27;20072;-65
2023/09/23 04:11:08;;;;;;;3.03;1.38;;;;;;;15.61;62.17;100863.78;5065995;27;20097;-64
2023/09/23 04:13:38;;;;;;;5.43;1.90;;;;;;;15.60;62.18;100865.66;5080968;27;20053;-65
2023/09/23 04:16:06;;;;;;;7.72;1.48;;;;;;;15.58;62.29;100862.41;5057773;28;20104;-65
2023/09/23 04:18:34;;;;;;;3.72;1.42;;;;;;;15.58;62.12;100869.72;5059059;27;20536;-65
2023/09/23 04:21:02;;;;;;;2.45;1.75;;;;;;;15.56;62.14;100869.94;5057022;27;20049;-65
2023/09/23 04:23:30;;;;;;;2.88;1.60;;;;;;;15.55;62.07;100881.84;5066876;27;20045;-65
2023/09/23 04:25:58;;;;;;;5.97;1.38;;;;;;;15.56;62.16;100882.69;5057612;27;20049;-66
2023/09/23 04:28:27;;;;;;;7.30;1.40;;;;;;;15.54;62.20;100880.22;5060320;28;20071;-65
2023/09/23 04:30:55;;;;;;;4.07;1.60;;;;;;;15.53;62.20;100892.13;5072814;27;20306;-66
2023/09/23 04:33:23;;;;;;;4.00;1.30;;;;;;;15.41;62.24;100869.78;5056294;27;20072;-66
2023/09/23 04:35:52;;;;;;;1.98;1.00;;;;;;;15.51;62.22;100899.69;5051317;28;20108;-66
2023/09/23 04:38:20;;;;;;;5.55;1.60;;;;;;;15.48;62.09;100897.47;5059990;28;20049;-65
2023/09/23 04:40:48;;;;;;;4.15;1.40;;;;;;;15.49;62.20;100907.25;5059176;28;20049;-66
2023/09/23 04:43:16;;;;;;;4.00;1.58;;;;;;;15.49;62.04;100903.72;5059644;27;20049;-65
2023/09/23 04:45:45;;;;;;;5.10;1.58;;;;;;;15.49;61.99;100912.66;5060123;28;20049;-65
2023/09/23 04:48:14;;;;;;;2.78;1.40;;;;;;;15.49;62.08;100914.56;5060381;27;20040;-65
2023/09/23 04:50:46;;;;;;;5.00;1.60;;;;;;;15.48;62.27;100908.31;5059627;28;20057;-66
2023/09/23 04:53:14;;;;;;;3.58;1.40;;;;;;;15.47;62.20;100922.94;5060187;28;20052;-66
2023/09/23 04:55:43;;;;;;;5.25;1.50;;;;;;;15.45;62.10;100916.94;5061818;27;20132;-66
2023/09/23 04:58:12;;;;;;;3.50;1.77;;;;;;;15.45;62.16;100918.84;5061379;28;20051;-65
2023/09/23 05:00:40;;;;;;;3.65;1.63;;;;;;;15.45;62.08;100914.25;5060720;27;20049;-65
2023/09/23 05:03:09;;;;;;;2.72;1.30;;;;;;;15.42;62.01;100916.63;5058482;27;20045;-65
2023/09/23 05:05:37;;;;;;;3.25;1.40;;;;;;;15.45;62.25;100919.66;5061619;27;20102;-64
2023/09/23 05:08:10;;;;;;;3.72;1.80;;;;;;;15.45;62.27;100924.25;5054493;28;20120;-65
2023/09/23 05:10:39;;;;;;;3.88;1.73;;;;;;;15.42;62.12;100931.00;5060339;28;20051;-65
2023/09/23 05:13:09;;;;;;;3.80;1.50;;;;;;;15.42;62.11;100938.31;5056130;28;20057;-65
2023/09/23 05:15:37;;;;;;;2.50;1.08;;;;;;;15.40;62.19;100943.97;5059219;27;20056;-64
2023/09/23 05:18:06;;;;;;;5.30;1.92;;;;;;;15.40;62.34;100957.50;5063778;27;20049;-67
2023/09/23 05:20:36;;;;;;;7.68;1.60;;;;;;;15.40;62.13;100964.81;5058864;28;20076;-67
2023/09/23 05:23:05;;;;;;;2.92;1.25;;;;;;;15.40;62.24;100964.81;5060453;27;20324;-67
2023/09/23 05:25:35;;;;;;;5.00;1.92;;;;;;;15.40;62.21;100970.22;5060405;28;20072;-65
2023/09/23 05:28:04;;;;;;;2.85;1.55;;;;;;;15.39;62.23;100977.53;5057965;28;20059;-67
2023/09/23 05:30:34;;;;;;;3.15;1.40;;;;;;;15.40;62.24;100975.66;5058669;28;20065;-66
2023/09/23 05:33:02;;;;;;;5.32;2.30;;;;;;;15.37;62.31;100982.38;5056677;27;20144;-67
2023/09/23 05:35:30;;;;;;;3.28;1.58;;;;;;;15.37;62.11;100987.81;5058362;27;20132;-66
2023/09/23 05:37:59;;;;;;;3.55;1.40;;;;;;;15.36;62.23;100994.28;5059711;27;20109;-66
2023/09/23 05:40:29;;;;;;;5.60;1.70;;;;;;;15.35;62.18;100989.94;5057583;28;20045;-66
2023/09/23 05:42:57;;;;;;;2.97;1.25;;;;;;;15.36;61.92;101005.13;5055635;27;20060;-66
2023/09/23 05:45:25;;;;;;;3.65;1.50;;;;;;;15.36;62.24;101009.72;5057955;28;20044;-67
2023/09/23 05:47:53;;;;;;;3.60;1.70;;;;;;;15.34;62.13;101007.25;5060006;28;20064;-68
2023/09/23 05:50:22;;;;;;;3.28;1.27;;;;;;;15.35;62.20;101013.50;5068131;27;20045;-67
2023/09/23 05:52:50;;;;;;;4.80;2.08;;;;;;;15.33;62.20;101018.34;5058827;27;20068;-67
2023/09/23 05:55:19;;;;;;;5.72;2.38;;;;;;;15.33;62.19;101018.34;5057897;28;20049;-67
2023/09/23 05:57:47;;;;;;;5.07;2.13;;;;;;;15.32;62.15;101017.53;5059209;28;20121;-67
2023/09/23 06:00:17;;;;;;;2.75;1.00;;;;;;;15.30;62.16;101020.47;5064606;27;20067;-66
2023/09/23 06:02:45;;;;;;;2.90;1.30;;;;;;;15.22;63.11;101028.19;4702448;27;10000320;-66
2023/09/23 06:05:13;;;;;;;6.40;1.80;;;;;;;15.15;63.53;101036.50;5055532;27;20165;-70
2023/09/23 06:07:42;;;;;;;5.95;2.85;;;;;;;15.17;63.14;101047.06;5056239;28;20056;-64
2023/09/23 06:10:10;;;;;;;4.03;1.70;;;;;;;15.19;63.20;101051.19;5071026;27;20049;-66
2023/09/23 06:12:40;;;;;;;3.80;1.70;;;;;;;15.21;62.99;101054.47;5062704;27;20090;-66
2023/09/23 06:15:10;;;;;;;7.03;1.98;;;;;;;15.22;63.15;101049.88;5057476;27;20045;-65
2023/09/23 06:17:38;;;;;;;9.45;2.25;;;;;;;15.23;62.96;101054.22;5053638;28;20052;-71
2023/09/23 06:20:07;;;;;;;4.05;1.50;;;;;;;15.23;62.89;101062.34;5054694;28;20066;-67
2023/09/23 06:22:35;;;;;;;7.38;2.00;;;;;;;15.25;62.59;101062.91;5071419;27;20062;-67
2023/09/23 06:25:03;;;;;;;4.38;1.77;;;;;;;15.20;62.68;101049.28;5059208;27;20045;-67
2023/09/23 06:27:31;;;;;;;3.70;1.65;;;;;;;15.24;62.79;101070.22;5055870;28;20053;-67
2023/09/23 06:30:01;;;;;;;6.03;1.60;;;;;;;15.23;62.91;101071.28;5058590;27;20048;-67
2023/09/23 06:32:29;;;;;;;3.45;1.58;;;;;;;15.19;62.79;101072.00;5056153;28;20052;-67
2023/09/23 06:34:56;;;;;;;1.80;1.27;;;;;;;15.25;62.84;101081.84;5066170;28;20144;-66
2023/09/23 06:37:24;;;;;;;2.97;1.30;;;;;;;15.25;62.67;101089.97;5054395;27;20063;-66
2023/09/23 06:39:52;;;;;;;3.60;1.60;;;;;;;15.26;62.94;101091.63;5058012;28;20041;-67
2023/09/23 06:42:20;;;;;;;6.10;1.27;;;;;;;15.26;62.90;101094.34;5081871;28;20056;-66
2023/09/23 06:44:48;;;;;;;6.97;1.50;;;;;;;15.27;62.95;101102.22;5059641;27;20075;-67
2023/09/23 06:47:17;;;;;;;4.97;1.70;;;;;;;15.27;62.88;101106.81;5062995;27;20045;-67
2023/09/23 06:49:45;;;;;;;3.75;1.58;;;;;;;15.25;63.02;101109.75;5061511;27;20069;-67
2023/09/23 06:52:13;;;;;;;6.13;1.60;;;;;;;15.27;63.26;101106.81;5144690;27;20039;-67
2023/09/23 06:54:41;;;;;;;5.80;1.48;;;;;;;15.26;63.21;101119.53;5143009;27;20054;-66
2023/09/23 06:57:09;;;;;;;2.70;1.20;;;;;;;15.27;63.13;101118.47;5136342;27;20111;-66
2023/09/23 06:59:36;;;;;;;2.95;1.35;;;;;;;15.16;63.36;101103.13;5141644;27;20043;-66
2023/09/23 07:02:04;;;;;;;2.88;1.65;;;;;;;15.26;63.28;101121.41;5141929;27;20503;-66
2023/09/23 07:04:35;;;;;;;6.70;1.65;;;;;;;15.08;63.62;101094.56;5138342;27;20087;-66
2023/09/23 07:07:03;;;;;;;1.30;1.08;;;;;;;15.27;63.53;101123.06;5138570;27;20061;-67
2023/09/23 07:09:31;;;;;;;6.78;1.90;;;;;;;15.28;63.32;101122.81;5140856;27;20042;-67
2023/09/23 07:11:59;;;;;;;6.25;1.98;;;;;;;15.29;63.43;101131.75;5132767;27;20044;-66
2023/09/23 07:14:27;;;;;;;4.63;1.52;;;;;;;15.32;63.43;101131.25;5138586;27;20042;-67
2023/09/23 07:16:56;;;;;;;4.18;1.55;;;;;;;15.33;63.47;101143.72;5139004;27;20759;-68
2023/09/23 07:19:25;;;;;;;5.80;1.92;;;;;;;15.28;64.36;101136.34;5140893;27;20047;-65
2023/09/23 07:21:54;;;;;;;12.20;2.65;;;;;;;15.26;64.66;101146.59;5140785;27;20054;-67
2023/09/23 07:24:22;;;;;;;7.70;1.55;;;;;;;15.25;64.69;101150.38;5141362;27;20058;-66
2023/09/23 07:26:49;;;;;;;5.30;2.25;;;;;;;15.27;64.49;101158.25;5132311;27;20057;-66
2023/09/23 07:29:17;;;;;;;7.03;2.45;;;;;;;15.26;64.90;101167.44;5142659;27;20047;-67
2023/09/23 07:31:45;;;;;;;18.70;2.60;;;;;;;15.21;65.91;101170.06;5140427;27;20054;-67
2023/09/23 07:34:13;;;;;;;5.45;1.80;;;;;;;15.19;65.78;101174.91;5138403;27;20043;-67
2023/09/23 07:36:41;;;;;;;6.22;2.17;;;;;;;15.19;65.56;101169.50;5137138;27;20131;-67
2023/09/23 07:39:11;;;;;;;6.00;2.28;;;;;;;15.21;65.67;101178.19;5141573;27;20053;-68
2023/09/23 07:41:39;;;;;;;11.95;1.90;;;;;;;15.20;65.61;101185.50;5136578;27;20073;-68
2023/09/23 07:44:07;;;;;;;5.28;1.77;;;;;;;15.23;65.56;101184.19;5135732;27;20048;-68
2023/09/23 07:46:36;;;;;;;9.15;2.17;;;;;;;15.24;65.50;101189.34;5139276;27;20089;-66
2023/09/23 07:49:05;;;;;;;4.65;1.40;;;;;;;15.23;65.30;101193.13;5144395;27;20058;-66
2023/09/23 07:51:32;;;;;;;5.50;1.88;;;;;;;15.24;65.67;101194.75;5080302;27;20124;-67
2023/09/23 07:54:01;;;;;;;5.18;1.80;;;;;;;15.24;66.11;101202.88;5061169;28;20066;-67
2023/09/23 07:56:30;;;;;;;4.68;2.03;;;;;;;15.28;65.78;101200.50;5063449;27;20274;-66
2023/09/23 07:58:58;;;;;;;3.60;1.92;;;;;;;15.27;65.69;101207.81;5060308;27;20049;-67
2023/09/23 08:01:26;;;;;;;4.90;2.17;;;;;;;15.26;65.52;101210.75;5061191;28;20059;-66
2023/09/23 08:03:53;;;;;;;8.05;1.80;;;;;;;15.26;65.47;101210.75;5063560;27;20398;-66
2023/09/23 08:06:21;;;;;;;5.45;1.70;;;;;;;15.28;65.45;101208.63;5061612;28;20049;-67
2023/09/23 08:08:49;;;;;;;5.60;1.88;;;;;;;15.26;65.53;101217.00;5062187;28;20045;-66
2023/09/23 08:11:17;;;;;;;3.47;1.60;;;;;;;15.26;65.42;101221.59;5062076;27;20045;-66
2023/09/23 08:13:46;;;;;;;5.03;1.55;;;;;;;15.26;65.70;101227.84;5061137;28;20078;-66
2023/09/23 08:16:14;;;;;;;7.20;1.70;;;;;;;15.27;65.96;101237.59;5063016;27;20392;-65
2023/09/23 08:18:42;;;;;;;6.38;1.60;;;;;;;15.28;65.87;101243.84;5064729;27;20049;-65
2023/09/23 08:21:11;;;;;;;4.32;1.77;;;;;;;15.29;65.63;101251.72;5058216;28;20045;-65
2023/09/23 08:23:39;;;;;;;6.00;1.67;;;;;;;15.29;65.74;101254.44;5060372;27;20037;-65
2023/09/23 08:26:07;;;;;;;6.20;2.05;;;;;;;15.30;65.88;101253.38;5060995;28;20056;-66
2023/09/23 08:28:35;;;;;;;6.00;1.80;;;;;;;15.30;65.63;101256.06;5059968;28;20057;-65
2023/09/23 08:31:04;;;;;;;3.35;1.55;;;;;;;15.31;65.74;101254.19;5056129;28;20053;-66
2023/09/23 08:33:32;;;;;;;4.97;1.58;;;;;;;15.31;65.96;101256.91;5056717;27;20110;-65
2023/09/23 08:36:00;;;;;;;2.83;1.30;;;;;;;15.40;65.82;101273.56;5081176;27;20042;-65
2023/09/23 08:38:28;;;;;;;7.63;2.35;;;;;;;15.38;65.60;101273.00;5065481;27;20488;-65
2023/09/23 08:40:55;;;;;;;6.70;1.48;;;;;;;15.39;65.98;101275.47;5079526;27;20049;-66
2023/09/23 08:43:36;;;;;;;4.22;2.05;;;;;;;15.44;65.70;101275.56;5060293;28;20052;-67
2023/09/23 08:46:07;;;;;;;4.05;2.35;;;;;;;15.45;65.83;101290.75;5060830;27;20059;-67
2023/09/23 08:48:35;;;;;;;4.88;2.40;;;;;;;15.45;65.92;101284.50;5053334;28;20079;-67
2023/09/23 08:51:04;;;;;;;7.03;1.92;;;;;;;15.51;66.49;101286.22;5059627;27;20089;-67
2023/09/23 08:53:34;;;;;;;4.68;1.80;;;;;;;15.50;65.68;101300.84;5060652;28;20113;-67
2023/09/23 08:56:02;;;;;;;4.57;1.60;;;;;;;15.48;65.88;101305.69;5055497;27;20198;-67
2023/09/23 08:58:30;;;;;;;5.07;1.30;;;;;;;15.48;65.97;101313.81;5061401;28;20045;-67
2023/09/23 09:00:58;;;;;;;5.55;1.80;;;;;;;15.48;65.85;101298.38;5050124;28;20053;-67
2023/09/23 09:03:27;;;;;;;6.75;1.90;;;;;;;15.50;66.03;101304.38;5062709;27;20041;-66
2023/09/23 09:05:55;;;;;;;4.40;1.75;;;;;;;15.51;65.95;101303.31;5059701;28;20053;-66
2023/09/23 09:08:23;;;;;;;6.07;1.73;;;;;;;15.52;65.84;101307.66;5060153;27;20049;-66
2023/09/23 09:10:51;;;;;;;4.22;1.42;;;;;;;15.57;66.33;101315.09;5062670;27;20128;-66
2023/09/23 09:13:19;;;;;;;6.80;1.65;;;;;;;15.58;66.16;101316.75;5059597;28;20097;-67
2023/09/23 09:15:47;;;;;;;6.30;1.70;;;;;;;15.60;66.09;101317.31;5058791;27;20061;-67
2023/09/23 09:18:16;;;;;;;3.63;1.58;;;;;;;15.61;66.00;101318.94;5063777;27;20067;-67
2023/09/23 09:20:46;;;;;;;5.25;1.30;;;;;;;15.61;66.09;101321.63;5059907;28;20074;-66
2023/09/23 09:23:15;;;;;;;4.22;1.65;;;;;;;15.60;66.24;101326.25;5060945;27;20070;-66
2023/09/23 09:25:49;;;;;;;5.05;1.80;;;;;;;15.65;66.31;101327.41;5059142;28;20095;-66
2023/09/23 09:28:19;;;;;;;6.88;1.80;;;;;;;15.62;66.31;101326.81;5060651;28;20048;-66
2023/09/23 09:30:54;;;;;;;5.15;1.70;;;;;;;15.65;66.28;101333.63;5062626;27;20053;-66
2023/09/23 09:33:25;;;;;;;8.27;1.95;;;;;;;15.65;66.43;101344.47;5055655;28;20086;-66
2023/09/23 09:35:55;;;;;;;5.30;2.00;;;;;;;15.66;66.50;101348.81;5052727;27;20053;-66
2023/09/23 09:38:24;;;;;;;6.88;1.90;;;;;;;15.67;66.50;101347.75;5057985;28;20075;-66
2023/09/23 09:41:02;;;;;;;6.30;1.63;;;;;;;15.65;66.46;101351.78;5060821;28;20055;-66
2023/09/23 09:43:33;;;;;;;2.53;1.17;;;;;;;15.67;66.16;101353.19;5060437;28;20045;-66
2023/09/23 09:46:07;;;;;;;5.93;1.85;;;;;;;15.58;66.44;101333.00;5061186;27;20053;-66
2023/09/23 09:48:39;;;;;;;3.70;1.48;;;;;;;15.69;66.39;101361.88;5059068;28;20045;-66
2023/09/23 09:51:09;;;;;;;5.07;2.03;;;;;;;15.69;66.57;101353.75;5059032;28;20105;-67
2023/09/23 09:53:38;;;;;;;10.95;2.00;;;;;;;15.70;66.67;101351.88;5054947;27;20048;-66
2023/09/23 09:56:06;;;;;;;6.10;1.70;;;;;;;15.71;66.71;101364.34;5059556;28;20189;-66
2023/09/23 09:58:38;;;;;;;6.75;1.92;;;;;;;15.71;66.77;101358.94;5059976;28;20053;-66
2023/09/23 10:01:11;;;;;;;6.57;1.58;;;;;;;15.69;66.79;101353.75;5057974;28;20079;-66
2023/09/23 10:03:42;;;;;;;9.55;1.75;;;;;;;15.75;66.88;101362.81;5051072;28;20041;-66
2023/09/23 10:06:19;;;;;;;5.10;1.50;;;;;;;15.83;66.94;101359.69;5056857;27;20079;-66
2023/09/23 10:08:48;;;;;;;4.80;1.50;;;;;;;15.80;66.91;101357.47;5055081;28;20041;-66
2023/09/23 10:11:17;;;;;;;7.53;1.77;;;;;;;15.80;66.97;101368.31;5075306;27;20041;-66
2023/09/23 10:13:46;;;;;;;4.03;2.05;;;;;;;15.78;67.02;101363.13;5048725;27;20737;-66
2023/09/23 10:16:17;;;;;;;4.75;1.55;;;;;;;15.78;66.96;101376.69;5060803;28;20484;-66
2023/09/23 10:18:54;;;;;;;5.18;1.55;;;;;;;15.81;67.09;101368.06;5055193;27;20057;-66
2023/09/23 10:21:27;;;;;;;6.50;2.13;;;;;;;15.81;67.15;101373.50;5058248;28;20045;-66
2023/09/23 10:23:56;;;;;;;4.53;1.60;;;;;;;15.83;67.12;101378.66;5054836;27;20412;-66
2023/09/23 10:26:28;;;;;;;4.80;2.13;;;;;;;15.87;67.21;101380.66;5060462;28;20074;-66
2023/09/23 10:28:58;;;;;;;7.53;1.73;;;;;;;15.86;67.17;101379.00;5062541;27;20053;-66
2023/09/23 10:31:26;;;;;;;5.13;1.67;;;;;;;15.87;67.04;101387.97;5058415;27;20478;-63
2023/09/23 10:33:54;;;;;;;8.80;1.98;;;;;;;15.90;67.15;101393.72;5057205;28;20474;-68
2023/09/23 10:36:24;;;;;;;6.30;1.40;;;;;;;16.01;66.86;101392.00;5056261;28;20061;-69
2023/09/23 10:38:52;;;;;;;3.22;1.30;;;;;;;15.98;66.93;101397.09;5058166;28;20148;-70
2023/09/23 10:41:20;;;;;;;3.78;1.40;;;;;;;15.97;66.90;101398.97;5056430;27;20049;-67
2023/09/23 10:43:53;;;;;;;6.70;2.03;;;;;;;15.99;66.91;101386.00;5057124;27;20056;-68
2023/09/23 10:46:21;;;;;;;9.07;1.80;;;;;;;15.99;66.79;101387.91;5058643;28;20136;-70
2023/09/23 10:48:50;;;;;;;3.90;1.30;;;;;;;16.06;67.11;101392.09;5058908;27;20066;-68
2023/09/23 10:51:18;;;;;;;9.45;1.38;;;;;;;16.05;66.95;101398.59;5057291;28;20162;-67
2023/09/23 10:53:49;;;;;;;5.82;2.00;;;;;;;16.08;67.10;101405.41;5058838;27;20039;-68
2023/09/23 10:56:20;;;;;;;5.32;1.58;;;;;;;16.09;67.10;101413.31;5059886;27;20074;-68
2023/09/23 10:58:49;;;;;;;9.40;1.40;;;;;;;16.10;66.97;101416.84;5056679;27;20139;-68
2023/09/23 11:01:17;;;;;;;7.60;1.65;;;;;;;16.19;66.70;101415.38;5056891;28;20452;-68
2023/09/23 11:03:46;;;;;;;8.75;1.75;;;;;;;16.15;66.77;101415.03;5056600;27;20481;-67
2023/09/23 11:06:16;;;;;;;6.75;2.20;;;;;;;16.11;66.71;101416.59;5068033;28;20044;-67
2023/09/23 11:08:44;;;;;;;4.55;1.38;;;;;;;16.12;66.80;101426.38;5058076;28;20060;-68
2023/09/23 11:11:15;;;;;;;6.65;1.85;;;;;;;16.12;66.73;101437.22;5054190;27;20045;-68
2023/09/23 11:13:43;;;;;;;7.47;1.73;;;;;;;16.12;66.60;101431.78;5063257;28;20063;-70
2023/09/23 11:16:11;;;;;;;6.80;1.35;;;;;;;16.13;66.51;101435.31;5072803;28;20045;-69
2023/09/23 11:18:39;;;;;;;5.13;1.60;;;;;;;16.14;66.60;101434.25;5056934;27;20116;-70
2023/09/23 11:21:07;;;;;;;3.63;1.35;;;;;;;16.13;66.53;101441.56;5057930;28;20078;-69
2023/09/23 11:23:35;;;;;;;6.47;2.00;;;;;;;16.13;66.55;101443.47;5058832;28;20057;-70
2023/09/23 11:26:03;;;;;;;5.22;1.90;;;;;;;16.13;66.42;101444.28;5057095;27;20041;-69
2023/09/23 11:28:32;;;;;;;8.05;1.70;;;;;;;16.13;66.31;101447.00;5059251;28;20041;-69
2023/09/23 11:31:00;;;;;;;4.05;1.50;;;;;;;16.13;66.41;101452.41;5057174;28;20045;-70